sensor_id;sensor_type;location;lat;lon;timestamp;temperature;humidity
68139;DHT22;54940;50.842;4.410;2023-09-30T00:01:46;16.00;99.90
68139;DHT22;54940;50.842;4.410;2023-09-30T00:04:12;16.00;99.90
68139;DHT22;54940;50.842;4.410;2023-09-30T00:06:37;16.00;99.90
68139;DHT22;54940;50.842;4.410;2023-09-30T00:09:03;16.00;99.90
68139;DHT22;54940;50.842;4.410;2023-09-30T00:11:30;16.00;99.90
68139;DHT22;54940;50.842;4.410;2023-09-30T00:13:56;16.00;99.90
68139;DHT22;54940;50.842;4.410;2023-09-30T00:16:21;16.00;99.90
68139;DHT22;54940;50.842;4.410;2023-09-30T00:18:47;16.00;99.90
68139;DHT22;54940;50.842;4.410;2023-09-30T00:21:13;16.00;99.90
68139;DHT22;54940;50.842;4.410;2023-09-30T00:23:40;16.00;99.90
68139;DHT22;54940;50.842;4.410;2023-09-30T00:26:06;16.00;99.90
68139;DHT22;54940;50.842;4.410;2023-09-30T00:28:32;15.90;99.90
68139;DHT22;54940;50.842;4.410;2023-09-30T00:31:00;15.90;99.90
68139;DHT22;54940;50.842;4.410;2023-09-30T00:33:25;15.90;99.90
68139;DHT22;54940;50.842;4.410;2023-09-30T00:35:51;15.90;99.90
68139;DHT22;54940;50.842;4.410;2023-09-30T00:38:16;15.90;99.90
68139;DHT22;54940;50.842;4.410;2023-09-30T00:40:49;15.90;99.90
68139;DHT22;54940;50.842;4.410;2023-09-30T00:43:19;15.90;99.90
68139;DHT22;54940;50.842;4.410;2023-09-30T00:45:45;15.90;99.90
68139;DHT22;54940;50.842;4.410;2023-09-30T00:48:11;15.90;99.90
68139;DHT22;54940;50.842;4.410;2023-09-30T00:50:37;15.90;99.90
68139;DHT22;54940;50.842;4.410;2023-09-30T00:53:03;15.90;99.90
68139;DHT22;54940;50.842;4.410;2023-09-30T00:55:29;15.90;99.90
68139;DHT22;54940;50.842;4.410;2023-09-30T00:57:54;15.90;99.90
68139;DHT22;54940;50.842;4.410;2023-09-30T01:00:20;15.90;99.90
68139;DHT22;54940;50.842;4.410;2023-09-30T01:02:46;15.80;99.90
68139;DHT22;54940;50.842;4.410;2023-09-30T01:05:13;15.80;99.90
68139;DHT22;54940;50.842;4.410;2023-09-30T01:07:38;15.80;99.90
68139;DHT22;54940;50.842;4.410;2023-09-30T01:10:05;15.80;99.90
68139;DHT22;54940;50.842;4.410;2023-09-30T01:12:30;15.80;99.90
68139;DHT22;54940;50.842;4.410;2023-09-30T01:14:58;15.70;99.90
68139;DHT22;54940;50.842;4.410;2023-09-30T01:17:27;15.80;99.90
68139;DHT22;54940;50.842;4.410;2023-09-30T01:19:54;15.60;99.90
68139;DHT22;54940;50.842;4.410;2023-09-30T01:22:20;15.70;99.90
68139;DHT22;54940;50.842;4.410;2023-09-30T01:24:46;15.60;99.90
68139;DHT22;54940;50.842;4.410;2023-09-30T01:27:13;15.60;99.90
68139;DHT22;54940;50.842;4.410;2023-09-30T01:29:41;15.60;99.90
68139;DHT22;54940;50.842;4.410;2023-09-30T01:32:07;15.70;99.90
68139;DHT22;54940;50.842;4.410;2023-09-30T01:34:34;15.70;99.90
68139;DHT22;54940;50.842;4.410;2023-09-30T01:37:00;15.70;99.90
68139;DHT22;54940;50.842;4.410;2023-09-30T01:39:26;15.70;99.90
68139;DHT22;54940;50.842;4.410;2023-09-30T01:41:51;15.70;99.90
68139;DHT22;54940;50.842;4.410;2023-09-30T01:44:17;15.70;99.90
68139;DHT22;54940;50.842;4.410;2023-09-30T01:46:43;15.70;99.90
68139;DHT22;54940;50.842;4.410;2023-09-30T01:49:09;15.60;99.90
68139;DHT22;54940;50.842;4.410;2023-09-30T01:51:35;15.60;99.90
68139;DHT22;54940;50.842;4.410;2023-09-30T01:54:03;15.60;99.90
68139;DHT22;54940;50.842;4.410;2023-09-30T01:56:31;15.60;99.90
68139;DHT22;54940;50.842;4.410;2023-09-30T01:58:57;15.60;99.90
68139;DHT22;54940;50.842;4.410;2023-09-30T02:01:23;15.60;99.90
68139;DHT22;54940;50.842;4.410;2023-09-30T02:03:48;15.50;99.90
68139;DHT22;54940;50.842;4.410;2023-09-30T02:06:15;15.50;99.90
68139;DHT22;54940;50.842;4.410;2023-09-30T02:08:40;15.50;99.90
68139;DHT22;54940;50.842;4.410;2023-09-30T02:11:07;15.40;99.90
68139;DHT22;54940;50.842;4.410;2023-09-30T02:13:33;15.50;99.90
68139;DHT22;54940;50.842;4.410;2023-09-30T02:16:00;15.40;99.90
68139;DHT22;54940;50.842;4.410;2023-09-30T02:18:27;15.50;99.90
68139;DHT22;54940;50.842;4.410;2023-09-30T02:20:52;15.40;99.90
68139;DHT22;54940;50.842;4.410;2023-09-30T02:23:19;15.40;99.90
68139;DHT22;54940;50.842;4.410;2023-09-30T02:25:44;15.40;99.90
68139;DHT22;54940;50.842;4.410;2023-09-30T02:28:10;15.30;99.90
68139;DHT22;54940;50.842;4.410;2023-09-30T02:30:36;15.30;99.90
68139;DHT22;54940;50.842;4.410;2023-09-30T02:33:02;15.30;99.90
68139;DHT22;54940;50.842;4.410;2023-09-30T02:35:30;15.30;99.90
68139;DHT22;54940;50.842;4.410;2023-09-30T02:37:55;15.40;99.90
68139;DHT22;54940;50.842;4.410;2023-09-30T02:40:21;15.40;99.90
68139;DHT22;54940;50.842;4.410;2023-09-30T02:42:50;15.40;99.90
68139;DHT22;54940;50.842;4.410;2023-09-30T02:45:17;15.40;99.90
68139;DHT22;54940;50.842;4.410;2023-09-30T02:47:42;15.40;99.90
68139;DHT22;54940;50.842;4.410;2023-09-30T02:50:09;15.40;99.90
68139;DHT22;54940;50.842;4.410;2023-09-30T02:52:37;15.40;99.90
68139;DHT22;54940;50.842;4.410;2023-09-30T02:55:07;15.40;99.90
68139;DHT22;54940;50.842;4.410;2023-09-30T02:57:33;15.50;99.90
68139;DHT22;54940;50.842;4.410;2023-09-30T02:59:58;15.40;99.90
68139;DHT22;54940;50.842;4.410;2023-09-30T03:02:26;15.50;99.90
68139;DHT22;54940;50.842;4.410;2023-09-30T03:04:51;15.50;99.90
68139;DHT22;54940;50.842;4.410;2023-09-30T03:07:20;15.50;99.90
68139;DHT22;54940;50.842;4.410;2023-09-30T03:09:46;15.50;99.90
68139;DHT22;54940;50.842;4.410;2023-09-30T03:12:12;15.40;99.90
68139;DHT22;54940;50.842;4.410;2023-09-30T03:14:38;15.40;99.90
68139;DHT22;54940;50.842;4.410;2023-09-30T03:17:03;15.30;99.90
68139;DHT22;54940;50.842;4.410;2023-09-30T03:19:29;15.30;99.90
68139;DHT22;54940;50.842;4.410;2023-09-30T03:21:57;15.30;99.90
68139;DHT22;54940;50.842;4.410;2023-09-30T03:24:23;15.30;99.90
68139;DHT22;54940;50.842;4.410;2023-09-30T03:26:49;15.20;99.90
68139;DHT22;54940;50.842;4.410;2023-09-30T03:29:15;15.10;99.90
68139;DHT22;54940;50.842;4.410;2023-09-30T03:31:40;15.00;99.90
68139;DHT22;54940;50.842;4.410;2023-09-30T03:34:06;15.10;99.90
68139;DHT22;54940;50.842;4.410;2023-09-30T03:36:33;15.00;99.90
68139;DHT22;54940;50.842;4.410;2023-09-30T03:39:01;15.00;99.90
68139;DHT22;54940;50.842;4.410;2023-09-30T03:41:34;14.90;99.90
68139;DHT22;54940;50.842;4.410;2023-09-30T03:44:02;15.00;99.90
68139;DHT22;54940;50.842;4.410;2023-09-30T03:46:30;15.00;99.90
68139;DHT22;54940;50.842;4.410;2023-09-30T03:48:56;15.00;99.90
68139;DHT22;54940;50.842;4.410;2023-09-30T03:51:26;15.00;99.90
68139;DHT22;54940;50.842;4.410;2023-09-30T03:53:53;15.00;99.90
68139;DHT22;54940;50.842;4.410;2023-09-30T03:56:18;15.00;99.90
68139;DHT22;54940;50.842;4.410;2023-09-30T03:58:47;14.90;99.90
68139;DHT22;54940;50.842;4.410;2023-09-30T04:01:13;15.00;99.90
68139;DHT22;54940;50.842;4.410;2023-09-30T04:03:40;14.90;99.90
68139;DHT22;54940;50.842;4.410;2023-09-30T04:06:06;15.00;99.90
68139;DHT22;54940;50.842;4.410;2023-09-30T04:08:32;14.70;99.90
68139;DHT22;54940;50.842;4.410;2023-09-30T04:11:07;14.70;99.90
68139;DHT22;54940;50.842;4.410;2023-09-30T04:13:40;14.70;99.90
68139;DHT22;54940;50.842;4.410;2023-09-30T04:16:06;14.70;99.90
68139;DHT22;54940;50.842;4.410;2023-09-30T04:18:32;14.70;99.90
68139;DHT22;54940;50.842;4.410;2023-09-30T04:20:58;14.70;99.90
68139;DHT22;54940;50.842;4.410;2023-09-30T04:23:25;14.70;99.90
68139;DHT22;54940;50.842;4.410;2023-09-30T04:25:50;14.70;99.90
68139;DHT22;54940;50.842;4.410;2023-09-30T04:28:18;14.70;99.90
68139;DHT22;54940;50.842;4.410;2023-09-30T04:30:47;14.70;99.90
68139;DHT22;54940;50.842;4.410;2023-09-30T04:33:15;14.70;99.90
68139;DHT22;54940;50.842;4.410;2023-09-30T04:35:40;14.70;99.90
68139;DHT22;54940;50.842;4.410;2023-09-30T04:38:06;14.60;99.90
68139;DHT22;54940;50.842;4.410;2023-09-30T04:40:32;14.60;99.90
68139;DHT22;54940;50.842;4.410;2023-09-30T04:42:59;14.60;99.90
68139;DHT22;54940;50.842;4.410;2023-09-30T04:45:27;14.60;99.90
68139;DHT22;54940;50.842;4.410;2023-09-30T04:47:53;14.60;99.90
68139;DHT22;54940;50.842;4.410;2023-09-30T04:50:21;14.60;99.90
68139;DHT22;54940;50.842;4.410;2023-09-30T04:52:47;14.60;99.90
68139;DHT22;54940;50.842;4.410;2023-09-30T04:55:14;14.60;99.90
68139;DHT22;54940;50.842;4.410;2023-09-30T04:57:42;14.60;99.90
68139;DHT22;54940;50.842;4.410;2023-09-30T05:00:16;14.50;99.90
68139;DHT22;54940;50.842;4.410;2023-09-30T05:02:43;14.50;99.90
68139;DHT22;54940;50.842;4.410;2023-09-30T05:05:10;14.50;99.90
68139;DHT22;54940;50.842;4.410;2023-09-30T05:07:36;14.50;99.90
68139;DHT22;54940;50.842;4.410;2023-09-30T05:10:02;14.60;99.90
68139;DHT22;54940;50.842;4.410;2023-09-30T05:12:31;14.60;99.90
68139;DHT22;54940;50.842;4.410;2023-09-30T05:14:58;14.60;99.90
68139;DHT22;54940;50.842;4.410;2023-09-30T05:17:24;14.60;99.90
68139;DHT22;54940;50.842;4.410;2023-09-30T05:19:50;14.60;99.90
68139;DHT22;54940;50.842;4.410;2023-09-30T05:22:15;14.70;99.90
68139;DHT22;54940;50.842;4.410;2023-09-30T05:24:44;14.60;99.90
68139;DHT22;54940;50.842;4.410;2023-09-30T05:27:10;14.60;99.90
68139;DHT22;54940;50.842;4.410;2023-09-30T05:29:35;14.60;99.90
68139;DHT22;54940;50.842;4.410;2023-09-30T05:32:01;14.50;99.90
68139;DHT22;54940;50.842;4.410;2023-09-30T05:34:27;14.50;99.90
68139;DHT22;54940;50.842;4.410;2023-09-30T05:36:53;14.40;99.90
68139;DHT22;54940;50.842;4.410;2023-09-30T05:39:18;14.60;99.90
68139;DHT22;54940;50.842;4.410;2023-09-30T05:41:46;14.60;99.90
68139;DHT22;54940;50.842;4.410;2023-09-30T05:44:12;14.70;99.90
68139;DHT22;54940;50.842;4.410;2023-09-30T05:46:40;14.60;99.90
68139;DHT22;54940;50.842;4.410;2023-09-30T05:49:06;14.60;99.90
68139;DHT22;54940;50.842;4.410;2023-09-30T05:51:39;14.70;99.90
68139;DHT22;54940;50.842;4.410;2023-09-30T05:54:05;14.80;99.90
68139;DHT22;54940;50.842;4.410;2023-09-30T05:56:31;14.80;99.90
68139;DHT22;54940;50.842;4.410;2023-09-30T05:58:58;14.80;99.90
68139;DHT22;54940;50.842;4.410;2023-09-30T06:01:24;14.80;99.90
68139;DHT22;54940;50.842;4.410;2023-09-30T06:03:50;14.80;99.90
68139;DHT22;54940;50.842;4.410;2023-09-30T06:06:16;14.90;99.90
68139;DHT22;54940;50.842;4.410;2023-09-30T06:08:45;14.90;99.90
68139;DHT22;54940;50.842;4.410;2023-09-30T06:11:21;15.00;99.90
68139;DHT22;54940;50.842;4.410;2023-09-30T06:13:58;15.00;99.90
68139;DHT22;54940;50.842;4.410;2023-09-30T06:16:27;15.00;99.90
68139;DHT22;54940;50.842;4.410;2023-09-30T06:18:53;14.90;99.90
68139;DHT22;54940;50.842;4.410;2023-09-30T06:21:24;14.90;99.90
68139;DHT22;54940;50.842;4.410;2023-09-30T06:23:54;14.90;99.90
68139;DHT22;54940;50.842;4.410;2023-09-30T06:26:20;14.90;99.90
68139;DHT22;54940;50.842;4.410;2023-09-30T06:28:50;14.80;99.90
68139;DHT22;54940;50.842;4.410;2023-09-30T06:31:19;14.80;99.90
68139;DHT22;54940;50.842;4.410;2023-09-30T06:33:45;14.70;99.90
68139;DHT22;54940;50.842;4.410;2023-09-30T06:36:13;14.80;99.90
68139;DHT22;54940;50.842;4.410;2023-09-30T06:38:40;14.80;99.90
68139;DHT22;54940;50.842;4.410;2023-09-30T06:41:07;14.80;99.90
68139;DHT22;54940;50.842;4.410;2023-09-30T06:43:34;14.80;99.90
68139;DHT22;54940;50.842;4.410;2023-09-30T06:46:06;14.80;99.90
68139;DHT22;54940;50.842;4.410;2023-09-30T06:48:35;14.80;99.90
68139;DHT22;54940;50.842;4.410;2023-09-30T06:51:04;14.90;99.90
68139;DHT22;54940;50.842;4.410;2023-09-30T06:53:29;15.00;99.90
68139;DHT22;54940;50.842;4.410;2023-09-30T06:55:57;15.00;99.90
68139;DHT22;54940;50.842;4.410;2023-09-30T06:58:27;14.90;99.90
68139;DHT22;54940;50.842;4.410;2023-09-30T07:00:53;15.00;99.90
68139;DHT22;54940;50.842;4.410;2023-09-30T07:03:22;14.90;99.90
68139;DHT22;54940;50.842;4.410;2023-09-30T07:05:50;14.90;99.90
68139;DHT22;54940;50.842;4.410;2023-09-30T07:08:19;15.00;99.90
68139;DHT22;54940;50.842;4.410;2023-09-30T07:10:46;15.00;99.90
68139;DHT22;54940;50.842;4.410;2023-09-30T07:13:18;15.00;99.90
68139;DHT22;54940;50.842;4.410;2023-09-30T07:15:43;15.10;99.90
68139;DHT22;54940;50.842;4.410;2023-09-30T07:18:09;15.10;99.90
68139;DHT22;54940;50.842;4.410;2023-09-30T07:20:35;15.10;99.90
68139;DHT22;54940;50.842;4.410;2023-09-30T07:23:01;15.00;99.90
68139;DHT22;54940;50.842;4.410;2023-09-30T07:25:27;15.00;99.90
68139;DHT22;54940;50.842;4.410;2023-09-30T07:27:55;15.20;99.90
68139;DHT22;54940;50.842;4.410;2023-09-30T07:30:22;15.20;99.90
68139;DHT22;54940;50.842;4.410;2023-09-30T07:32:48;15.20;99.90
68139;DHT22;54940;50.842;4.410;2023-09-30T07:35:14;15.30;99.90
68139;DHT22;54940;50.842;4.410;2023-09-30T07:37:41;15.70;99.90
68139;DHT22;54940;50.842;4.410;2023-09-30T07:40:08;16.30;99.90
68139;DHT22;54940;50.842;4.410;2023-09-30T07:42:33;16.70;99.90
68139;DHT22;54940;50.842;4.410;2023-09-30T07:45:00;17.00;99.90
68139;DHT22;54940;50.842;4.410;2023-09-30T07:47:28;17.40;99.90
68139;DHT22;54940;50.842;4.410;2023-09-30T07:49:56;17.60;99.90
68139;DHT22;54940;50.842;4.410;2023-09-30T07:52:21;17.90;99.90
68139;DHT22;54940;50.842;4.410;2023-09-30T07:54:47;18.20;99.90
68139;DHT22;54940;50.842;4.410;2023-09-30T07:57:13;18.30;99.90
68139;DHT22;54940;50.842;4.410;2023-09-30T07:59:38;18.50;99.90
68139;DHT22;54940;50.842;4.410;2023-09-30T08:02:04;18.80;99.90
68139;DHT22;54940;50.842;4.410;2023-09-30T08:04:31;18.90;99.90
68139;DHT22;54940;50.842;4.410;2023-09-30T08:06:56;19.00;99.90
68139;DHT22;54940;50.842;4.410;2023-09-30T08:09:22;19.10;99.90
68139;DHT22;54940;50.842;4.410;2023-09-30T08:11:50;19.20;99.90
68139;DHT22;54940;50.842;4.410;2023-09-30T08:14:16;19.10;99.90
68139;DHT22;54940;50.842;4.410;2023-09-30T08:16:42;19.00;99.90
68139;DHT22;54940;50.842;4.410;2023-09-30T08:19:09;18.80;99.90
68139;DHT22;54940;50.842;4.410;2023-09-30T08:21:34;18.50;99.90
68139;DHT22;54940;50.842;4.410;2023-09-30T08:24:02;18.40;99.90
68139;DHT22;54940;50.842;4.410;2023-09-30T08:26:28;18.20;99.90
68139;DHT22;54940;50.842;4.410;2023-09-30T08:28:53;17.90;99.90
68139;DHT22;54940;50.842;4.410;2023-09-30T08:31:19;17.70;99.90
68139;DHT22;54940;50.842;4.410;2023-09-30T08:33:47;17.60;99.90
68139;DHT22;54940;50.842;4.410;2023-09-30T08:36:13;17.60;99.90
68139;DHT22;54940;50.842;4.410;2023-09-30T08:38:40;17.70;99.90
68139;DHT22;54940;50.842;4.410;2023-09-30T08:41:09;17.40;99.90
68139;DHT22;54940;50.842;4.410;2023-09-30T08:43:40;17.30;99.90
68139;DHT22;54940;50.842;4.410;2023-09-30T08:46:06;17.20;99.90
68139;DHT22;54940;50.842;4.410;2023-09-30T08:48:33;17.10;99.90
68139;DHT22;54940;50.842;4.410;2023-09-30T08:51:00;17.10;99.90
68139;DHT22;54940;50.842;4.410;2023-09-30T08:53:31;17.20;99.90
68139;DHT22;54940;50.842;4.410;2023-09-30T08:55:59;17.00;99.90
68139;DHT22;54940;50.842;4.410;2023-09-30T08:58:29;17.10;99.90
68139;DHT22;54940;50.842;4.410;2023-09-30T09:00:56;17.20;99.90
68139;DHT22;54940;50.842;4.410;2023-09-30T09:03:22;17.20;99.90
68139;DHT22;54940;50.842;4.410;2023-09-30T09:05:55;17.30;99.90
68139;DHT22;54940;50.842;4.410;2023-09-30T09:08:22;17.20;99.90
68139;DHT22;54940;50.842;4.410;2023-09-30T09:10:56;17.20;99.90
68139;DHT22;54940;50.842;4.410;2023-09-30T09:13:22;17.20;99.90
68139;DHT22;54940;50.842;4.410;2023-09-30T09:15:47;17.20;99.90
68139;DHT22;54940;50.842;4.410;2023-09-30T09:18:31;17.20;99.90
68139;DHT22;54940;50.842;4.410;2023-09-30T09:21:17;17.30;99.90
68139;DHT22;54940;50.842;4.410;2023-09-30T09:23:47;17.40;99.90
68139;DHT22;54940;50.842;4.410;2023-09-30T09:26:30;17.50;99.90
68139;DHT22;54940;50.842;4.410;2023-09-30T09:29:02;17.50;99.90
68139;DHT22;54940;50.842;4.410;2023-09-30T09:31:33;17.60;99.90
68139;DHT22;54940;50.842;4.410;2023-09-30T09:34:03;17.70;99.90
68139;DHT22;54940;50.842;4.410;2023-09-30T09:36:43;18.00;99.90
68139;DHT22;54940;50.842;4.410;2023-09-30T09:39:11;18.20;99.90
68139;DHT22;54940;50.842;4.410;2023-09-30T09:41:51;18.30;99.90
68139;DHT22;54940;50.842;4.410;2023-09-30T09:44:18;18.50;99.90
68139;DHT22;54940;50.842;4.410;2023-09-30T09:46:45;18.60;99.90
68139;DHT22;54940;50.842;4.410;2023-09-30T09:49:15;18.70;99.90
68139;DHT22;54940;50.842;4.410;2023-09-30T09:51:45;18.70;99.90
68139;DHT22;54940;50.842;4.410;2023-09-30T09:54:12;18.80;99.90
68139;DHT22;54940;50.842;4.410;2023-09-30T09:56:39;19.10;99.90
68139;DHT22;54940;50.842;4.410;2023-09-30T09:59:07;19.10;99.90
68139;DHT22;54940;50.842;4.410;2023-09-30T10:01:34;19.20;99.90
68139;DHT22;54940;50.842;4.410;2023-09-30T10:04:01;19.30;99.90
68139;DHT22;54940;50.842;4.410;2023-09-30T10:06:27;19.40;99.90
68139;DHT22;54940;50.842;4.410;2023-09-30T10:08:54;19.50;99.90
68139;DHT22;54940;50.842;4.410;2023-09-30T10:11:24;19.50;99.90
68139;DHT22;54940;50.842;4.410;2023-09-30T10:13:53;19.40;99.90
68139;DHT22;54940;50.842;4.410;2023-09-30T10:19:12;19.40;99.90
68139;DHT22;54940;50.842;4.410;2023-09-30T10:21:38;19.60;99.90
68139;DHT22;54940;50.842;4.410;2023-09-30T10:37:47;20.80;99.90
68139;DHT22;54940;50.842;4.410;2023-09-30T10:40:30;21.00;99.90
68139;DHT22;54940;50.842;4.410;2023-09-30T10:42:56;21.20;99.90
68139;DHT22;54940;50.842;4.410;2023-09-30T10:50:59;21.20;99.90
68139;DHT22;54940;50.842;4.410;2023-09-30T10:53:26;21.10;99.90
68139;DHT22;54940;50.842;4.410;2023-09-30T10:56:00;20.80;99.90
68139;DHT22;54940;50.842;4.410;2023-09-30T11:01:18;21.10;99.90
68139;DHT22;54940;50.842;4.410;2023-09-30T11:03:45;21.20;99.90
68139;DHT22;54940;50.842;4.410;2023-09-30T11:06:15;21.50;99.90
68139;DHT22;54940;50.842;4.410;2023-09-30T11:08:56;21.70;99.90
68139;DHT22;54940;50.842;4.410;2023-09-30T11:11:48;21.90;99.90
68139;DHT22;54940;50.842;4.410;2023-09-30T11:14:31;22.20;99.90
68139;DHT22;54940;50.842;4.410;2023-09-30T11:16:58;22.60;99.90
68139;DHT22;54940;50.842;4.410;2023-09-30T11:19:36;22.70;99.90
68139;DHT22;54940;50.842;4.410;2023-09-30T11:22:05;22.40;99.90
68139;DHT22;54940;50.842;4.410;2023-09-30T11:24:36;22.30;99.90
68139;DHT22;54940;50.842;4.410;2023-09-30T11:27:02;22.00;99.90
68139;DHT22;54940;50.842;4.410;2023-09-30T11:29:28;22.00;99.90
68139;DHT22;54940;50.842;4.410;2023-09-30T11:31:54;21.70;99.90
68139;DHT22;54940;50.842;4.410;2023-09-30T11:34:31;21.80;99.90
68139;DHT22;54940;50.842;4.410;2023-09-30T11:36:58;21.90;99.90
68139;DHT22;54940;50.842;4.410;2023-09-30T11:39:27;21.80;99.90
68139;DHT22;54940;50.842;4.410;2023-09-30T11:41:55;22.10;99.90
68139;DHT22;54940;50.842;4.410;2023-09-30T11:44:22;22.50;99.90
68139;DHT22;54940;50.842;4.410;2023-09-30T11:49:44;23.00;99.90
68139;DHT22;54940;50.842;4.410;2023-09-30T11:52:15;23.00;99.90
68139;DHT22;54940;50.842;4.410;2023-09-30T11:54:43;23.20;99.90
68139;DHT22;54940;50.842;4.410;2023-09-30T11:57:14;23.40;99.90
68139;DHT22;54940;50.842;4.410;2023-09-30T11:59:47;23.20;99.90
68139;DHT22;54940;50.842;4.410;2023-09-30T12:02:13;23.40;99.90
68139;DHT22;54940;50.842;4.410;2023-09-30T12:04:40;23.10;99.90
68139;DHT22;54940;50.842;4.410;2023-09-30T12:07:08;23.00;99.90
68139;DHT22;54940;50.842;4.410;2023-09-30T12:09:36;23.20;99.90
68139;DHT22;54940;50.842;4.410;2023-09-30T12:12:03;23.20;99.90
68139;DHT22;54940;50.842;4.410;2023-09-30T12:14:29;23.20;99.90
68139;DHT22;54940;50.842;4.410;2023-09-30T12:16:56;23.40;99.90
68139;DHT22;54940;50.842;4.410;2023-09-30T12:19:22;23.70;99.90
68139;DHT22;54940;50.842;4.410;2023-09-30T12:21:48;23.40;99.90
68139;DHT22;54940;50.842;4.410;2023-09-30T12:24:15;23.30;99.90
68139;DHT22;54940;50.842;4.410;2023-09-30T12:26:47;23.40;99.90
68139;DHT22;54940;50.842;4.410;2023-09-30T12:29:18;23.40;99.90
68139;DHT22;54940;50.842;4.410;2023-09-30T12:31:53;23.50;99.90
68139;DHT22;54940;50.842;4.410;2023-09-30T12:34:19;23.70;99.90
68139;DHT22;54940;50.842;4.410;2023-09-30T12:36:44;23.90;99.90
68139;DHT22;54940;50.842;4.410;2023-09-30T12:39:15;23.50;99.90
68139;DHT22;54940;50.842;4.410;2023-09-30T12:41:43;23.60;99.90
68139;DHT22;54940;50.842;4.410;2023-09-30T12:44:10;23.60;99.90
68139;DHT22;54940;50.842;4.410;2023-09-30T12:46:37;23.60;99.90
68139;DHT22;54940;50.842;4.410;2023-09-30T12:49:05;23.30;99.90
68139;DHT22;54940;50.842;4.410;2023-09-30T12:51:31;23.30;99.90
68139;DHT22;54940;50.842;4.410;2023-09-30T12:53:57;23.00;99.90
68139;DHT22;54940;50.842;4.410;2023-09-30T12:56:23;22.90;99.90
68139;DHT22;54940;50.842;4.410;2023-09-30T12:58:49;22.80;99.90
68139;DHT22;54940;50.842;4.410;2023-09-30T13:01:15;22.70;99.90
68139;DHT22;54940;50.842;4.410;2023-09-30T13:03:46;22.70;99.90
68139;DHT22;54940;50.842;4.410;2023-09-30T13:06:12;22.60;99.90
68139;DHT22;54940;50.842;4.410;2023-09-30T13:08:37;22.70;99.90
68139;DHT22;54940;50.842;4.410;2023-09-30T13:11:04;22.60;99.90
68139;DHT22;54940;50.842;4.410;2023-09-30T13:13:32;22.40;99.90
68139;DHT22;54940;50.842;4.410;2023-09-30T13:16:02;22.50;99.90
68139;DHT22;54940;50.842;4.410;2023-09-30T13:18:31;22.40;99.90
68139;DHT22;54940;50.842;4.410;2023-09-30T13:20:59;22.20;99.90
68139;DHT22;54940;50.842;4.410;2023-09-30T13:23:25;22.10;99.90
68139;DHT22;54940;50.842;4.410;2023-09-30T13:25:53;22.10;99.90
68139;DHT22;54940;50.842;4.410;2023-09-30T13:28:18;22.20;99.90
68139;DHT22;54940;50.842;4.410;2023-09-30T13:30:44;22.10;99.90
68139;DHT22;54940;50.842;4.410;2023-09-30T13:33:11;21.90;99.90
68139;DHT22;54940;50.842;4.410;2023-09-30T13:35:37;21.90;99.90
68139;DHT22;54940;50.842;4.410;2023-09-30T13:38:03;21.80;99.90
68139;DHT22;54940;50.842;4.410;2023-09-30T13:40:29;21.90;99.90
68139;DHT22;54940;50.842;4.410;2023-09-30T13:42:55;21.70;99.90
68139;DHT22;54940;50.842;4.410;2023-09-30T13:45:22;21.80;99.90
68139;DHT22;54940;50.842;4.410;2023-09-30T13:47:48;21.80;99.90
68139;DHT22;54940;50.842;4.410;2023-09-30T13:50:14;21.70;99.90
68139;DHT22;54940;50.842;4.410;2023-09-30T13:52:39;21.50;99.90
68139;DHT22;54940;50.842;4.410;2023-09-30T13:55:05;21.50;99.90
68139;DHT22;54940;50.842;4.410;2023-09-30T13:57:31;21.40;99.90
68139;DHT22;54940;50.842;4.410;2023-09-30T13:59:57;21.20;99.90
68139;DHT22;54940;50.842;4.410;2023-09-30T14:02:23;21.20;99.90
68139;DHT22;54940;50.842;4.410;2023-09-30T14:04:51;21.30;99.90
68139;DHT22;54940;50.842;4.410;2023-09-30T14:07:18;21.50;99.90
68139;DHT22;54940;50.842;4.410;2023-09-30T14:09:44;21.60;99.90
68139;DHT22;54940;50.842;4.410;2023-09-30T14:12:10;21.60;99.90
68139;DHT22;54940;50.842;4.410;2023-09-30T14:14:36;21.70;99.90
68139;DHT22;54940;50.842;4.410;2023-09-30T14:17:02;21.60;99.90
68139;DHT22;54940;50.842;4.410;2023-09-30T14:19:35;21.60;99.90
68139;DHT22;54940;50.842;4.410;2023-09-30T14:22:01;21.40;99.90
68139;DHT22;54940;50.842;4.410;2023-09-30T14:24:31;21.50;99.90
68139;DHT22;54940;50.842;4.410;2023-09-30T14:26:58;21.70;99.90
68139;DHT22;54940;50.842;4.410;2023-09-30T14:29:24;21.90;99.90
68139;DHT22;54940;50.842;4.410;2023-09-30T14:31:50;21.70;99.90
68139;DHT22;54940;50.842;4.410;2023-09-30T14:34:17;21.60;99.90
68139;DHT22;54940;50.842;4.410;2023-09-30T14:36:43;21.60;99.90
68139;DHT22;54940;50.842;4.410;2023-09-30T14:39:09;21.50;99.90
68139;DHT22;54940;50.842;4.410;2023-09-30T14:41:35;21.50;99.90
68139;DHT22;54940;50.842;4.410;2023-09-30T14:44:01;21.60;99.90
68139;DHT22;54940;50.842;4.410;2023-09-30T14:46:29;21.60;99.90
68139;DHT22;54940;50.842;4.410;2023-09-30T14:48:57;21.50;99.90
68139;DHT22;54940;50.842;4.410;2023-09-30T14:51:24;21.40;99.90
68139;DHT22;54940;50.842;4.410;2023-09-30T14:53:49;21.50;99.90
68139;DHT22;54940;50.842;4.410;2023-09-30T14:56:16;21.50;99.90
68139;DHT22;54940;50.842;4.410;2023-09-30T14:58:42;21.50;99.90
68139;DHT22;54940;50.842;4.410;2023-09-30T15:01:08;21.30;99.90
68139;DHT22;54940;50.842;4.410;2023-09-30T15:03:34;21.20;99.90
68139;DHT22;54940;50.842;4.410;2023-09-30T15:06:06;21.00;99.90
68139;DHT22;54940;50.842;4.410;2023-09-30T15:08:32;20.90;99.90
68139;DHT22;54940;50.842;4.410;2023-09-30T15:11:01;20.70;99.90
68139;DHT22;54940;50.842;4.410;2023-09-30T15:13:28;20.80;99.90
68139;DHT22;54940;50.842;4.410;2023-09-30T15:15:54;20.70;99.90
68139;DHT22;54940;50.842;4.410;2023-09-30T15:18:20;20.60;99.90
68139;DHT22;54940;50.842;4.410;2023-09-30T15:20:51;20.70;99.90
68139;DHT22;54940;50.842;4.410;2023-09-30T15:23:17;20.60;99.90
68139;DHT22;54940;50.842;4.410;2023-09-30T15:25:43;20.60;99.90
68139;DHT22;54940;50.842;4.410;2023-09-30T15:28:11;20.70;99.90
68139;DHT22;54940;50.842;4.410;2023-09-30T15:30:39;20.50;99.90
68139;DHT22;54940;50.842;4.410;2023-09-30T15:33:05;20.50;99.90
68139;DHT22;54940;50.842;4.410;2023-09-30T15:35:31;20.50;99.90
68139;DHT22;54940;50.842;4.410;2023-09-30T15:37:59;20.30;99.90
68139;DHT22;54940;50.842;4.410;2023-09-30T15:40:25;20.40;99.90
68139;DHT22;54940;50.842;4.410;2023-09-30T15:42:50;20.30;99.90
68139;DHT22;54940;50.842;4.410;2023-09-30T15:45:16;20.30;99.90
68139;DHT22;54940;50.842;4.410;2023-09-30T15:47:51;20.30;99.90
68139;DHT22;54940;50.842;4.410;2023-09-30T15:50:17;20.20;99.90
68139;DHT22;54940;50.842;4.410;2023-09-30T15:52:43;20.30;99.90
68139;DHT22;54940;50.842;4.410;2023-09-30T15:55:10;20.20;99.90
68139;DHT22;54940;50.842;4.410;2023-09-30T15:57:36;20.20;99.90
68139;DHT22;54940;50.842;4.410;2023-09-30T16:00:02;20.30;99.90